Normand Subsea — 2CQP8 — position and weather

sailwx.info

Track history (hours):
 
Tides and Currents Weather Stations Pressure Air Temp Water Temp Dewpoint Dewpoint Depression Visibility Wind Speed Wind Dir Waves Ship Positions

Normand Subsea

Last reported at 2015-May-28 08:10 UTC. Time now 2015-May-29 04:11 UTC.
Position N 54°09' E 005°09'.

Length 113 m; draft 7.6 m.

Type: Other ship. MMSI: 235074949.

Date/timePositionNaut miles runAvg speedWind from/ knotsBaromVisibWave heightAir tempDewpointWater temp
2015-May-28 08:10N 54°09' E 005°09'710.9
2015-May-28 07:33N 54°02' E 005°08'1111.2
2015-May-28 06:34N 53°52' E 005°01'2611.4
2015-May-28 04:15N 53°27' E 004°43'1011.6
2015-May-28 03:23N 53°18' E 004°36'13 2.2
2015-May-27 21:26N 53°14' E 004°16'0 0.0
2015-May-27 20:32N 53°14' E 004°16'15 5.1
2015-May-27 17:32N 53°22' E 003°54'  
2015-May-22 05:18N 53°31' E 003°25'26 2.2
2015-May-21 17:33N 53°15' E 003°59'0 0.0
2015-May-21 16:33N 53°15' E 003°59'0 0.0
2015-May-21 15:32N 53°15' E 003°59'0 0.0
2015-May-21 12:20N 53°15' E 003°59'0 0.0
2015-May-21 11:27N 53°15' E 003°59'0 0.0
2015-May-21 10:19N 53°15' E 003°59'0 0.0
2015-May-21 08:27N 53°15' E 003°59'0 0.0
2015-May-21 07:16N 53°15' E 003°59'0 0.0
2015-May-21 06:24N 53°15' E 003°59'18 0.5
2015-May-19 18:16N 53°02' E 004°20'810.6
2015-May-19 17:29N 52°56' E 004°30'6 6.5
2015-May-19 16:33N 52°55' E 004°40'5 5.2
2015-May-19 15:34N 52°58' E 004°47'1 0.6
2015-May-19 14:33N 52°57' E 004°47'0 0.0
2015-May-19 09:25N 52°57' E 004°47'0 0.0
2015-May-19 08:10N 52°57' E 004°47'0 0.0
2015-May-19 07:22N 52°57' E 004°47'3 3.2
2015-May-19 06:33N 52°58' E 004°42'7 7.0
2015-May-19 05:33N 52°53' E 004°33'8 7.6
2015-May-19 04:31N 52°59' E 004°25'  
Track history (hours):
 
Tides and Currents Weather Stations Pressure Air Temp Water Temp Dewpoint Dewpoint Depression Visibility Wind Speed Wind Dir Waves Ship Positions

Normand Subsea

Last reported at 2015-May-28 08:10 UTC. Time now 2015-May-29 04:11 UTC.
Position N 54°09' E 005°09'.

Length 113 m; draft 7.6 m.

Type: Other ship. MMSI: 235074949.

Date/timePositionNaut miles runAvg speedWind from/ knotsBaromVisibWave heightAir tempDewpointWater temp
2015-May-28 08:10N 54°09' E 005°09'710.9
2015-May-28 07:33N 54°02' E 005°08'1111.2
2015-May-28 06:34N 53°52' E 005°01'2611.4
2015-May-28 04:15N 53°27' E 004°43'1011.6
2015-May-28 03:23N 53°18' E 004°36'13 2.2
2015-May-27 21:26N 53°14' E 004°16'0 0.0
2015-May-27 20:32N 53°14' E 004°16'15 5.1
2015-May-27 17:32N 53°22' E 003°54'  
2015-May-22 05:18N 53°31' E 003°25'26 2.2
2015-May-21 17:33N 53°15' E 003°59'0 0.0
2015-May-21 16:33N 53°15' E 003°59'0 0.0
2015-May-21 15:32N 53°15' E 003°59'0 0.0
2015-May-21 12:20N 53°15' E 003°59'0 0.0
2015-May-21 11:27N 53°15' E 003°59'0 0.0
2015-May-21 10:19N 53°15' E 003°59'0 0.0
2015-May-21 08:27N 53°15' E 003°59'0 0.0
2015-May-21 07:16N 53°15' E 003°59'0 0.0
2015-May-21 06:24N 53°15' E 003°59'18 0.5
2015-May-19 18:16N 53°02' E 004°20'810.6
2015-May-19 17:29N 52°56' E 004°30'6 6.5
2015-May-19 16:33N 52°55' E 004°40'5 5.2
2015-May-19 15:34N 52°58' E 004°47'1 0.6
2015-May-19 14:33N 52°57' E 004°47'0 0.0
2015-May-19 09:25N 52°57' E 004°47'0 0.0
2015-May-19 08:10N 52°57' E 004°47'0 0.0
2015-May-19 07:22N 52°57' E 004°47'3 3.2
2015-May-19 06:33N 52°58' E 004°42'7 7.0
2015-May-19 05:33N 52°53' E 004°33'8 7.6
2015-May-19 04:31N 52°59' E 004°25'  

Dump ship's entire track history